sensor_id;sensor_type;location;lat;lon;timestamp;temperature;humidity
23568;DHT22;11962;50.838;4.430;2023-07-16T00:02:13;18.70;99.90
23568;DHT22;11962;50.838;4.430;2023-07-16T00:04:39;18.70;99.90
23568;DHT22;11962;50.838;4.430;2023-07-16T00:07:05;18.70;99.90
23568;DHT22;11962;50.838;4.430;2023-07-16T00:09:31;18.70;99.90
23568;DHT22;11962;50.838;4.430;2023-07-16T00:11:57;18.70;99.90
23568;DHT22;11962;50.838;4.430;2023-07-16T00:14:22;18.70;99.90
23568;DHT22;11962;50.838;4.430;2023-07-16T00:16:48;18.70;99.90
23568;DHT22;11962;50.838;4.430;2023-07-16T00:19:14;18.70;99.90
23568;DHT22;11962;50.838;4.430;2023-07-16T00:21:40;18.60;99.90
23568;DHT22;11962;50.838;4.430;2023-07-16T00:24:06;18.60;99.90
23568;DHT22;11962;50.838;4.430;2023-07-16T00:26:32;18.60;99.90
23568;DHT22;11962;50.838;4.430;2023-07-16T00:28:58;18.60;99.90
23568;DHT22;11962;50.838;4.430;2023-07-16T00:31:23;18.50;99.90
23568;DHT22;11962;50.838;4.430;2023-07-16T00:33:49;18.50;99.90
23568;DHT22;11962;50.838;4.430;2023-07-16T00:36:15;18.50;99.90
23568;DHT22;11962;50.838;4.430;2023-07-16T00:38:40;18.50;99.90
23568;DHT22;11962;50.838;4.430;2023-07-16T00:41:08;18.40;99.90
23568;DHT22;11962;50.838;4.430;2023-07-16T00:43:33;18.40;99.90
23568;DHT22;11962;50.838;4.430;2023-07-16T00:45:59;18.40;99.90
23568;DHT22;11962;50.838;4.430;2023-07-16T00:48:25;18.30;99.90
23568;DHT22;11962;50.838;4.430;2023-07-16T00:50:52;18.30;99.90
23568;DHT22;11962;50.838;4.430;2023-07-16T00:53:20;18.30;99.90
23568;DHT22;11962;50.838;4.430;2023-07-16T00:55:46;18.30;99.90
23568;DHT22;11962;50.838;4.430;2023-07-16T00:58:12;18.20;99.90
23568;DHT22;11962;50.838;4.430;2023-07-16T01:00:39;18.20;99.90
23568;DHT22;11962;50.838;4.430;2023-07-16T01:03:11;18.20;99.90
23568;DHT22;11962;50.838;4.430;2023-07-16T01:06:04;18.10;99.90
23568;DHT22;11962;50.838;4.430;2023-07-16T01:08:40;18.10;99.90
23568;DHT22;11962;50.838;4.430;2023-07-16T01:11:07;18.10;99.90
23568;DHT22;11962;50.838;4.430;2023-07-16T01:13:34;18.10;99.90
23568;DHT22;11962;50.838;4.430;2023-07-16T01:16:00;18.00;99.90
23568;DHT22;11962;50.838;4.430;2023-07-16T01:18:26;18.00;99.90
23568;DHT22;11962;50.838;4.430;2023-07-16T01:20:52;18.00;99.90
23568;DHT22;11962;50.838;4.430;2023-07-16T01:23:39;18.00;99.90
23568;DHT22;11962;50.838;4.430;2023-07-16T01:32:11;17.90;99.90
23568;DHT22;11962;50.838;4.430;2023-07-16T01:34:38;17.90;99.90
23568;DHT22;11962;50.838;4.430;2023-07-16T01:37:05;17.90;99.90
23568;DHT22;11962;50.838;4.430;2023-07-16T01:39:31;17.90;99.90
23568;DHT22;11962;50.838;4.430;2023-07-16T01:42:01;17.80;99.90
23568;DHT22;11962;50.838;4.430;2023-07-16T01:44:27;17.80;99.90
23568;DHT22;11962;50.838;4.430;2023-07-16T01:47:13;17.80;99.90
23568;DHT22;11962;50.838;4.430;2023-07-16T01:49:40;17.70;99.90
23568;DHT22;11962;50.838;4.430;2023-07-16T01:52:09;17.70;99.90
23568;DHT22;11962;50.838;4.430;2023-07-16T01:54:35;17.60;99.90
23568;DHT22;11962;50.838;4.430;2023-07-16T01:57:01;17.60;99.90
23568;DHT22;11962;50.838;4.430;2023-07-16T01:59:27;17.60;99.90
23568;DHT22;11962;50.838;4.430;2023-07-16T02:01:53;17.60;99.90
23568;DHT22;11962;50.838;4.430;2023-07-16T02:04:20;17.50;99.90
23568;DHT22;11962;50.838;4.430;2023-07-16T02:06:45;17.60;99.90
23568;DHT22;11962;50.838;4.430;2023-07-16T02:09:13;17.50;99.90
23568;DHT22;11962;50.838;4.430;2023-07-16T02:11:39;17.40;99.90
23568;DHT22;11962;50.838;4.430;2023-07-16T02:14:04;17.40;99.90
23568;DHT22;11962;50.838;4.430;2023-07-16T02:16:30;17.40;99.90
23568;DHT22;11962;50.838;4.430;2023-07-16T02:18:56;17.40;99.90
23568;DHT22;11962;50.838;4.430;2023-07-16T02:21:21;17.40;99.90
23568;DHT22;11962;50.838;4.430;2023-07-16T02:23:47;17.40;99.90
23568;DHT22;11962;50.838;4.430;2023-07-16T02:26:13;17.30;99.90
23568;DHT22;11962;50.838;4.430;2023-07-16T02:28:39;17.40;99.90
23568;DHT22;11962;50.838;4.430;2023-07-16T02:31:05;17.30;99.90
23568;DHT22;11962;50.838;4.430;2023-07-16T02:33:30;17.30;99.90
23568;DHT22;11962;50.838;4.430;2023-07-16T02:35:56;17.30;99.90
23568;DHT22;11962;50.838;4.430;2023-07-16T02:38:22;17.30;99.90
23568;DHT22;11962;50.838;4.430;2023-07-16T02:40:48;17.30;99.90
23568;DHT22;11962;50.838;4.430;2023-07-16T02:43:14;17.30;99.90
23568;DHT22;11962;50.838;4.430;2023-07-16T02:45:41;17.30;99.90
23568;DHT22;11962;50.838;4.430;2023-07-16T02:48:07;17.20;99.90
23568;DHT22;11962;50.838;4.430;2023-07-16T02:50:36;17.20;99.90
23568;DHT22;11962;50.838;4.430;2023-07-16T02:53:06;17.20;99.90
23568;DHT22;11962;50.838;4.430;2023-07-16T02:55:32;17.20;99.90
23568;DHT22;11962;50.838;4.430;2023-07-16T02:57:58;17.20;99.90
23568;DHT22;11962;50.838;4.430;2023-07-16T03:00:24;17.20;99.90
23568;DHT22;11962;50.838;4.430;2023-07-16T03:02:50;17.20;99.90
23568;DHT22;11962;50.838;4.430;2023-07-16T03:05:16;17.20;99.90
23568;DHT22;11962;50.838;4.430;2023-07-16T03:07:43;17.20;99.90
23568;DHT22;11962;50.838;4.430;2023-07-16T03:10:09;17.20;99.90
23568;DHT22;11962;50.838;4.430;2023-07-16T03:12:34;17.10;99.90
23568;DHT22;11962;50.838;4.430;2023-07-16T03:15:00;17.10;99.90
23568;DHT22;11962;50.838;4.430;2023-07-16T03:17:26;17.10;99.90
23568;DHT22;11962;50.838;4.430;2023-07-16T03:19:52;17.20;99.90
23568;DHT22;11962;50.838;4.430;2023-07-16T03:22:17;17.20;99.90
23568;DHT22;11962;50.838;4.430;2023-07-16T03:24:43;17.20;99.90
23568;DHT22;11962;50.838;4.430;2023-07-16T03:27:09;17.20;99.90
23568;DHT22;11962;50.838;4.430;2023-07-16T03:29:34;17.10;99.90
23568;DHT22;11962;50.838;4.430;2023-07-16T03:32:00;17.10;99.90
23568;DHT22;11962;50.838;4.430;2023-07-16T03:34:26;17.10;99.90
23568;DHT22;11962;50.838;4.430;2023-07-16T03:36:52;17.10;99.90
23568;DHT22;11962;50.838;4.430;2023-07-16T03:39:17;17.10;99.90
23568;DHT22;11962;50.838;4.430;2023-07-16T03:41:43;17.10;99.90
23568;DHT22;11962;50.838;4.430;2023-07-16T03:44:10;17.10;99.90
23568;DHT22;11962;50.838;4.430;2023-07-16T03:46:36;17.10;99.90
23568;DHT22;11962;50.838;4.430;2023-07-16T03:49:02;17.10;99.90
23568;DHT22;11962;50.838;4.430;2023-07-16T03:51:27;17.10;99.90
23568;DHT22;11962;50.838;4.430;2023-07-16T03:53:53;17.10;99.90
23568;DHT22;11962;50.838;4.430;2023-07-16T03:56:19;17.10;99.90
23568;DHT22;11962;50.838;4.430;2023-07-16T03:58:45;17.10;99.90
23568;DHT22;11962;50.838;4.430;2023-07-16T04:01:10;17.00;99.90
23568;DHT22;11962;50.838;4.430;2023-07-16T04:03:36;17.00;99.90
23568;DHT22;11962;50.838;4.430;2023-07-16T04:06:07;17.10;99.90
23568;DHT22;11962;50.838;4.430;2023-07-16T04:08:35;17.10;99.90
23568;DHT22;11962;50.838;4.430;2023-07-16T04:11:02;17.10;99.90
23568;DHT22;11962;50.838;4.430;2023-07-16T04:13:28;17.10;99.90
23568;DHT22;11962;50.838;4.430;2023-07-16T04:15:54;17.10;99.90
23568;DHT22;11962;50.838;4.430;2023-07-16T04:18:27;17.10;99.90
23568;DHT22;11962;50.838;4.430;2023-07-16T04:20:53;17.20;99.90
23568;DHT22;11962;50.838;4.430;2023-07-16T04:23:19;17.20;99.90
23568;DHT22;11962;50.838;4.430;2023-07-16T04:25:45;17.20;99.90
23568;DHT22;11962;50.838;4.430;2023-07-16T04:28:12;17.20;99.90
23568;DHT22;11962;50.838;4.430;2023-07-16T04:30:38;17.30;99.90
23568;DHT22;11962;50.838;4.430;2023-07-16T04:33:04;17.30;99.90
23568;DHT22;11962;50.838;4.430;2023-07-16T04:35:30;17.40;99.90
23568;DHT22;11962;50.838;4.430;2023-07-16T04:37:56;17.30;99.90
23568;DHT22;11962;50.838;4.430;2023-07-16T04:40:21;17.40;99.90
23568;DHT22;11962;50.838;4.430;2023-07-16T04:42:47;17.40;99.90
23568;DHT22;11962;50.838;4.430;2023-07-16T04:45:13;17.40;99.90
23568;DHT22;11962;50.838;4.430;2023-07-16T04:47:39;17.50;99.90
23568;DHT22;11962;50.838;4.430;2023-07-16T04:50:05;17.50;99.90
23568;DHT22;11962;50.838;4.430;2023-07-16T04:52:31;17.50;99.90
23568;DHT22;11962;50.838;4.430;2023-07-16T04:54:57;17.60;99.90
23568;DHT22;11962;50.838;4.430;2023-07-16T04:57:23;17.60;99.90
23568;DHT22;11962;50.838;4.430;2023-07-16T04:59:48;17.60;99.90
23568;DHT22;11962;50.838;4.430;2023-07-16T05:02:14;17.60;99.90
23568;DHT22;11962;50.838;4.430;2023-07-16T05:04:42;17.60;99.90
23568;DHT22;11962;50.838;4.430;2023-07-16T05:07:10;17.70;99.90
23568;DHT22;11962;50.838;4.430;2023-07-16T05:09:35;17.70;99.90
23568;DHT22;11962;50.838;4.430;2023-07-16T05:12:01;17.80;99.90
23568;DHT22;11962;50.838;4.430;2023-07-16T05:14:28;17.90;99.90
23568;DHT22;11962;50.838;4.430;2023-07-16T05:16:54;18.00;99.90
23568;DHT22;11962;50.838;4.430;2023-07-16T05:19:20;18.10;99.90
23568;DHT22;11962;50.838;4.430;2023-07-16T05:21:46;18.10;99.90
23568;DHT22;11962;50.838;4.430;2023-07-16T05:24:12;18.10;99.90
23568;DHT22;11962;50.838;4.430;2023-07-16T05:26:38;18.10;99.90
23568;DHT22;11962;50.838;4.430;2023-07-16T05:29:04;18.10;99.90
23568;DHT22;11962;50.838;4.430;2023-07-16T05:31:30;18.30;99.90
23568;DHT22;11962;50.838;4.430;2023-07-16T05:33:55;18.30;99.90
23568;DHT22;11962;50.838;4.430;2023-07-16T05:36:21;18.40;99.90
23568;DHT22;11962;50.838;4.430;2023-07-16T05:38:47;18.40;99.90
23568;DHT22;11962;50.838;4.430;2023-07-16T05:41:13;18.40;99.90
23568;DHT22;11962;50.838;4.430;2023-07-16T05:43:39;18.50;99.90
23568;DHT22;11962;50.838;4.430;2023-07-16T05:46:04;18.60;99.90
23568;DHT22;11962;50.838;4.430;2023-07-16T05:48:31;18.70;99.90
23568;DHT22;11962;50.838;4.430;2023-07-16T05:50:57;18.90;99.90
23568;DHT22;11962;50.838;4.430;2023-07-16T05:53:23;19.00;99.90
23568;DHT22;11962;50.838;4.430;2023-07-16T05:55:48;19.20;99.90
23568;DHT22;11962;50.838;4.430;2023-07-16T05:58:15;19.90;99.90
23568;DHT22;11962;50.838;4.430;2023-07-16T06:00:42;21.20;99.90
23568;DHT22;11962;50.838;4.430;2023-07-16T06:03:07;22.70;99.90
23568;DHT22;11962;50.838;4.430;2023-07-16T06:05:33;24.10;99.90
23568;DHT22;11962;50.838;4.430;2023-07-16T06:08:00;25.50;97.90
23568;DHT22;11962;50.838;4.430;2023-07-16T06:10:26;26.80;93.30
23568;DHT22;11962;50.838;4.430;2023-07-16T06:12:52;27.70;88.30
23568;DHT22;11962;50.838;4.430;2023-07-16T06:15:18;28.60;83.10
23568;DHT22;11962;50.838;4.430;2023-07-16T06:17:44;29.00;77.40
23568;DHT22;11962;50.838;4.430;2023-07-16T06:20:10;29.80;74.40
23568;DHT22;11962;50.838;4.430;2023-07-16T06:22:36;30.70;71.50
23568;DHT22;11962;50.838;4.430;2023-07-16T06:25:02;31.40;65.40
23568;DHT22;11962;50.838;4.430;2023-07-16T06:27:30;31.80;63.70
23568;DHT22;11962;50.838;4.430;2023-07-16T06:29:55;32.10;62.20
23568;DHT22;11962;50.838;4.430;2023-07-16T06:32:21;32.60;59.90
23568;DHT22;11962;50.838;4.430;2023-07-16T06:34:47;33.00;58.90
23568;DHT22;11962;50.838;4.430;2023-07-16T06:37:13;33.40;57.50
23568;DHT22;11962;50.838;4.430;2023-07-16T06:39:38;33.60;56.20
23568;DHT22;11962;50.838;4.430;2023-07-16T06:42:04;34.00;55.90
23568;DHT22;11962;50.838;4.430;2023-07-16T06:44:30;34.60;54.60
23568;DHT22;11962;50.838;4.430;2023-07-16T06:46:56;35.10;53.30
23568;DHT22;11962;50.838;4.430;2023-07-16T06:49:23;35.70;52.30
23568;DHT22;11962;50.838;4.430;2023-07-16T06:51:49;36.10;51.10
23568;DHT22;11962;50.838;4.430;2023-07-16T06:54:14;36.60;50.70
23568;DHT22;11962;50.838;4.430;2023-07-16T06:56:40;37.20;49.40
23568;DHT22;11962;50.838;4.430;2023-07-16T06:59:06;37.50;48.30
23568;DHT22;11962;50.838;4.430;2023-07-16T07:01:32;37.30;47.50
23568;DHT22;11962;50.838;4.430;2023-07-16T07:03:57;37.10;47.80
23568;DHT22;11962;50.838;4.430;2023-07-16T07:06:23;37.20;47.80
23568;DHT22;11962;50.838;4.430;2023-07-16T07:08:49;37.80;47.90
23568;DHT22;11962;50.838;4.430;2023-07-16T07:11:14;38.50;45.80
23568;DHT22;11962;50.838;4.430;2023-07-16T07:13:40;38.00;45.80
23568;DHT22;11962;50.838;4.430;2023-07-16T07:16:07;38.20;45.70
23568;DHT22;11962;50.838;4.430;2023-07-16T07:18:33;37.90;45.60
23568;DHT22;11962;50.838;4.430;2023-07-16T07:20:59;37.60;46.00
23568;DHT22;11962;50.838;4.430;2023-07-16T07:23:24;37.80;45.90
23568;DHT22;11962;50.838;4.430;2023-07-16T07:25:51;37.60;46.40
23568;DHT22;11962;50.838;4.430;2023-07-16T07:28:17;37.50;46.10
23568;DHT22;11962;50.838;4.430;2023-07-16T07:30:44;38.20;46.20
23568;DHT22;11962;50.838;4.430;2023-07-16T07:33:10;38.30;44.70
23568;DHT22;11962;50.838;4.430;2023-07-16T07:35:35;38.40;45.00
23568;DHT22;11962;50.838;4.430;2023-07-16T07:38:01;39.00;44.60
23568;DHT22;11962;50.838;4.430;2023-07-16T07:40:27;39.10;44.40
23568;DHT22;11962;50.838;4.430;2023-07-16T07:42:53;39.40;44.50
23568;DHT22;11962;50.838;4.430;2023-07-16T07:45:18;39.30;44.00
23568;DHT22;11962;50.838;4.430;2023-07-16T07:47:44;37.60;44.50
23568;DHT22;11962;50.838;4.430;2023-07-16T07:50:10;36.10;46.90
23568;DHT22;11962;50.838;4.430;2023-07-16T07:52:36;36.30;47.50
23568;DHT22;11962;50.838;4.430;2023-07-16T07:55:01;37.70;46.60
23568;DHT22;11962;50.838;4.430;2023-07-16T07:57:27;38.90;44.90
23568;DHT22;11962;50.838;4.430;2023-07-16T07:59:53;39.30;43.80
23568;DHT22;11962;50.838;4.430;2023-07-16T08:02:25;39.50;43.70
23568;DHT22;11962;50.838;4.430;2023-07-16T08:11:41;40.30;42.30
23568;DHT22;11962;50.838;4.430;2023-07-16T08:14:07;40.70;42.40
23568;DHT22;11962;50.838;4.430;2023-07-16T08:16:33;40.60;41.90
23568;DHT22;11962;50.838;4.430;2023-07-16T08:18:58;41.20;42.00
23568;DHT22;11962;50.838;4.430;2023-07-16T08:21:24;41.90;40.50
23568;DHT22;11962;50.838;4.430;2023-07-16T08:23:50;42.40;39.80
23568;DHT22;11962;50.838;4.430;2023-07-16T08:26:18;42.10;40.60
23568;DHT22;11962;50.838;4.430;2023-07-16T08:28:44;42.80;39.70
23568;DHT22;11962;50.838;4.430;2023-07-16T08:31:13;43.00;38.40
23568;DHT22;11962;50.838;4.430;2023-07-16T08:33:39;42.40;39.00
23568;DHT22;11962;50.838;4.430;2023-07-16T08:36:05;42.30;39.40
23568;DHT22;11962;50.838;4.430;2023-07-16T08:38:30;42.50;39.20
23568;DHT22;11962;50.838;4.430;2023-07-16T08:40:56;43.10;38.30
23568;DHT22;11962;50.838;4.430;2023-07-16T08:43:22;44.00;38.00
23568;DHT22;11962;50.838;4.430;2023-07-16T08:45:49;44.70;37.20
23568;DHT22;11962;50.838;4.430;2023-07-16T08:48:19;45.40;35.90
23568;DHT22;11962;50.838;4.430;2023-07-16T08:50:47;44.30;36.80
23568;DHT22;11962;50.838;4.430;2023-07-16T08:53:15;41.80;38.30
23568;DHT22;11962;50.838;4.430;2023-07-16T08:55:44;39.50;40.80
23568;DHT22;11962;50.838;4.430;2023-07-16T08:58:11;37.30;43.30
23568;DHT22;11962;50.838;4.430;2023-07-16T09:00:37;35.60;45.80
23568;DHT22;11962;50.838;4.430;2023-07-16T09:03:03;34.50;47.30
23568;DHT22;11962;50.838;4.430;2023-07-16T09:05:29;33.10;49.20
23568;DHT22;11962;50.838;4.430;2023-07-16T09:07:55;32.00;51.50
23568;DHT22;11962;50.838;4.430;2023-07-16T09:10:21;31.30;52.80
23568;DHT22;11962;50.838;4.430;2023-07-16T09:12:47;30.70;54.00
23568;DHT22;11962;50.838;4.430;2023-07-16T09:15:17;30.30;54.80
23568;DHT22;11962;50.838;4.430;2023-07-16T09:17:47;30.10;55.70
23568;DHT22;11962;50.838;4.430;2023-07-16T09:20:15;31.30;54.80
23568;DHT22;11962;50.838;4.430;2023-07-16T09:22:42;32.20;53.30
23568;DHT22;11962;50.838;4.430;2023-07-16T09:25:08;32.00;52.70
23568;DHT22;11962;50.838;4.430;2023-07-16T09:27:34;31.40;52.80
23568;DHT22;11962;50.838;4.430;2023-07-16T09:30:00;30.50;53.70
23568;DHT22;11962;50.838;4.430;2023-07-16T09:32:35;29.70;55.40
23568;DHT22;11962;50.838;4.430;2023-07-16T09:35:07;29.00;57.60
23568;DHT22;11962;50.838;4.430;2023-07-16T09:37:33;28.70;58.80
23568;DHT22;11962;50.838;4.430;2023-07-16T09:39:59;28.60;60.00
23568;DHT22;11962;50.838;4.430;2023-07-16T09:42:25;28.30;60.00
23568;DHT22;11962;50.838;4.430;2023-07-16T09:44:53;28.00;61.20
23568;DHT22;11962;50.838;4.430;2023-07-16T09:47:19;27.80;62.10
23568;DHT22;11962;50.838;4.430;2023-07-16T09:49:45;27.70;61.80
23568;DHT22;11962;50.838;4.430;2023-07-16T09:52:11;28.10;61.80
23568;DHT22;11962;50.838;4.430;2023-07-16T09:54:39;28.70;59.80
23568;DHT22;11962;50.838;4.430;2023-07-16T09:57:06;29.20;58.60
23568;DHT22;11962;50.838;4.430;2023-07-16T09:59:33;29.70;58.00
23568;DHT22;11962;50.838;4.430;2023-07-16T10:01:59;29.90;57.50
23568;DHT22;11962;50.838;4.430;2023-07-16T10:04:25;29.90;57.40
23568;DHT22;11962;50.838;4.430;2023-07-16T10:12:18;29.60;57.40
23568;DHT22;11962;50.838;4.430;2023-07-16T10:14:49;29.30;58.70
23568;DHT22;11962;50.838;4.430;2023-07-16T10:17:15;29.10;58.80
23568;DHT22;11962;50.838;4.430;2023-07-16T10:19:58;28.60;59.40
23568;DHT22;11962;50.838;4.430;2023-07-16T10:23:12;28.00;60.30
23568;DHT22;11962;50.838;4.430;2023-07-16T10:25:38;27.30;62.70
23568;DHT22;11962;50.838;4.430;2023-07-16T10:28:04;26.80;62.70
23568;DHT22;11962;50.838;4.430;2023-07-16T10:30:31;26.50;65.60
23568;DHT22;11962;50.838;4.430;2023-07-16T10:32:56;26.10;66.30
23568;DHT22;11962;50.838;4.430;2023-07-16T10:35:22;25.90;67.30
23568;DHT22;11962;50.838;4.430;2023-07-16T10:37:48;25.60;67.70
23568;DHT22;11962;50.838;4.430;2023-07-16T10:40:14;25.50;68.30
23568;DHT22;11962;50.838;4.430;2023-07-16T10:42:41;25.40;68.70
23568;DHT22;11962;50.838;4.430;2023-07-16T10:45:12;25.70;68.60
23568;DHT22;11962;50.838;4.430;2023-07-16T10:47:49;25.90;68.50
23568;DHT22;11962;50.838;4.430;2023-07-16T10:50:16;25.70;68.30
23568;DHT22;11962;50.838;4.430;2023-07-16T10:52:45;25.60;68.60
23568;DHT22;11962;50.838;4.430;2023-07-16T10:55:11;25.70;69.00
23568;DHT22;11962;50.838;4.430;2023-07-16T10:57:37;26.30;68.30
23568;DHT22;11962;50.838;4.430;2023-07-16T11:00:03;27.50;65.90
23568;DHT22;11962;50.838;4.430;2023-07-16T11:02:38;28.20;63.10
23568;DHT22;11962;50.838;4.430;2023-07-16T11:05:15;28.40;62.40
23568;DHT22;11962;50.838;4.430;2023-07-16T11:07:47;28.30;61.60
23568;DHT22;11962;50.838;4.430;2023-07-16T11:10:17;28.40;62.10
23568;DHT22;11962;50.838;4.430;2023-07-16T11:12:44;29.00;61.10
23568;DHT22;11962;50.838;4.430;2023-07-16T11:15:10;28.90;60.00
23568;DHT22;11962;50.838;4.430;2023-07-16T11:17:39;28.50;61.10
23568;DHT22;11962;50.838;4.430;2023-07-16T11:20:07;28.20;62.00
23568;DHT22;11962;50.838;4.430;2023-07-16T11:22:37;27.80;62.60
23568;DHT22;11962;50.838;4.430;2023-07-16T11:25:04;27.70;63.90
23568;DHT22;11962;50.838;4.430;2023-07-16T11:27:33;27.60;64.30
23568;DHT22;11962;50.838;4.430;2023-07-16T11:30:00;27.40;65.90
23568;DHT22;11962;50.838;4.430;2023-07-16T11:32:32;27.20;70.40
23568;DHT22;11962;50.838;4.430;2023-07-16T11:35:08;26.80;70.50
23568;DHT22;11962;50.838;4.430;2023-07-16T11:37:35;26.70;72.80
23568;DHT22;11962;50.838;4.430;2023-07-16T11:40:09;26.80;72.60
23568;DHT22;11962;50.838;4.430;2023-07-16T11:42:39;26.70;70.50
23568;DHT22;11962;50.838;4.430;2023-07-16T11:45:18;26.50;73.10
23568;DHT22;11962;50.838;4.430;2023-07-16T11:47:44;26.20;75.20
23568;DHT22;11962;50.838;4.430;2023-07-16T11:50:10;25.90;76.40
23568;DHT22;11962;50.838;4.430;2023-07-16T11:52:35;25.60;78.40
23568;DHT22;11962;50.838;4.430;2023-07-16T11:55:01;25.50;78.60
23568;DHT22;11962;50.838;4.430;2023-07-16T11:57:29;26.00;79.10
23568;DHT22;11962;50.838;4.430;2023-07-16T11:59:55;26.80;77.50
23568;DHT22;11962;50.838;4.430;2023-07-16T12:02:21;27.60;76.50
23568;DHT22;11962;50.838;4.430;2023-07-16T12:04:48;28.00;73.00
23568;DHT22;11962;50.838;4.430;2023-07-16T12:07:31;28.10;73.30
23568;DHT22;11962;50.838;4.430;2023-07-16T12:09:58;28.00;74.30
23568;DHT22;11962;50.838;4.430;2023-07-16T12:12:23;28.00;71.80
23568;DHT22;11962;50.838;4.430;2023-07-16T12:14:49;28.00;70.90
23568;DHT22;11962;50.838;4.430;2023-07-16T12:17:15;28.20;70.20
23568;DHT22;11962;50.838;4.430;2023-07-16T12:19:40;28.30;69.80
23568;DHT22;11962;50.838;4.430;2023-07-16T12:22:06;28.50;68.00
23568;DHT22;11962;50.838;4.430;2023-07-16T12:24:32;28.70;66.20
23568;DHT22;11962;50.838;4.430;2023-07-16T12:26:58;28.90;66.00
23568;DHT22;11962;50.838;4.430;2023-07-16T12:29:23;29.00;65.10
23568;DHT22;11962;50.838;4.430;2023-07-16T12:31:50;29.00;63.00
23568;DHT22;11962;50.838;4.430;2023-07-16T12:34:15;28.90;62.70
23568;DHT22;11962;50.838;4.430;2023-07-16T12:36:41;28.80;63.90
23568;DHT22;11962;50.838;4.430;2023-07-16T12:39:07;28.90;63.20
23568;DHT22;11962;50.838;4.430;2023-07-16T12:41:33;28.80;63.30
23568;DHT22;11962;50.838;4.430;2023-07-16T12:43:58;28.90;62.90
23568;DHT22;11962;50.838;4.430;2023-07-16T12:46:25;28.80;63.10
23568;DHT22;11962;50.838;4.430;2023-07-16T12:48:51;29.00;63.40
23568;DHT22;11962;50.838;4.430;2023-07-16T12:51:16;29.20;62.20
23568;DHT22;11962;50.838;4.430;2023-07-16T12:53:42;29.40;62.30
23568;DHT22;11962;50.838;4.430;2023-07-16T12:56:09;29.60;61.20
23568;DHT22;11962;50.838;4.430;2023-07-16T12:58:35;29.40;61.00
23568;DHT22;11962;50.838;4.430;2023-07-16T13:01:04;29.30;61.00
23568;DHT22;11962;50.838;4.430;2023-07-16T13:03:30;29.00;60.80
23568;DHT22;11962;50.838;4.430;2023-07-16T13:05:56;29.10;61.80
23568;DHT22;11962;50.838;4.430;2023-07-16T13:08:21;29.20;61.80
23568;DHT22;11962;50.838;4.430;2023-07-16T13:10:47;29.40;62.00
23568;DHT22;11962;50.838;4.430;2023-07-16T13:13:13;29.60;61.60
23568;DHT22;11962;50.838;4.430;2023-07-16T13:15:39;29.70;60.90
23568;DHT22;11962;50.838;4.430;2023-07-16T13:18:04;29.60;61.10
23568;DHT22;11962;50.838;4.430;2023-07-16T13:20:30;29.40;61.70
23568;DHT22;11962;50.838;4.430;2023-07-16T13:22:56;29.10;63.00
23568;DHT22;11962;50.838;4.430;2023-07-16T13:25:22;28.90;62.00
23568;DHT22;11962;50.838;4.430;2023-07-16T13:27:48;28.80;61.50
23568;DHT22;11962;50.838;4.430;2023-07-16T13:30:14;28.50;62.60
23568;DHT22;11962;50.838;4.430;2023-07-16T13:32:40;28.30;62.60
23568;DHT22;11962;50.838;4.430;2023-07-16T13:35:06;28.20;63.00
23568;DHT22;11962;50.838;4.430;2023-07-16T13:37:32;28.10;62.90
23568;DHT22;11962;50.838;4.430;2023-07-16T13:39:58;28.00;62.70
23568;DHT22;11962;50.838;4.430;2023-07-16T13:42:23;27.70;63.40
23568;DHT22;11962;50.838;4.430;2023-07-16T13:44:49;27.40;65.50
23568;DHT22;11962;50.838;4.430;2023-07-16T13:47:15;27.00;70.70
23568;DHT22;11962;50.838;4.430;2023-07-16T13:49:41;26.70;73.00
23568;DHT22;11962;50.838;4.430;2023-07-16T13:52:06;26.50;74.30
23568;DHT22;11962;50.838;4.430;2023-07-16T13:54:32;26.30;75.30
23568;DHT22;11962;50.838;4.430;2023-07-16T13:56:58;26.40;74.50
23568;DHT22;11962;50.838;4.430;2023-07-16T13:59:24;26.60;75.00
23568;DHT22;11962;50.838;4.430;2023-07-16T14:01:59;26.90;73.70
23568;DHT22;11962;50.838;4.430;2023-07-16T14:04:25;27.30;71.30
23568;DHT22;11962;50.838;4.430;2023-07-16T14:06:51;27.60;70.00
23568;DHT22;11962;50.838;4.430;2023-07-16T14:09:18;27.70;67.50
23568;DHT22;11962;50.838;4.430;2023-07-16T14:11:45;27.80;67.20
23568;DHT22;11962;50.838;4.430;2023-07-16T14:14:13;27.80;66.60
23568;DHT22;11962;50.838;4.430;2023-07-16T14:16:39;27.90;66.10
23568;DHT22;11962;50.838;4.430;2023-07-16T14:19:08;28.00;66.10
23568;DHT22;11962;50.838;4.430;2023-07-16T14:21:33;28.10;65.90
23568;DHT22;11962;50.838;4.430;2023-07-16T14:23:59;28.20;65.00
23568;DHT22;11962;50.838;4.430;2023-07-16T14:26:25;28.20;64.60
23568;DHT22;11962;50.838;4.430;2023-07-16T14:28:51;28.20;64.90
23568;DHT22;11962;50.838;4.430;2023-07-16T14:31:17;28.20;64.40
23568;DHT22;11962;50.838;4.430;2023-07-16T14:33:42;28.30;63.70
23568;DHT22;11962;50.838;4.430;2023-07-16T14:36:14;28.30;63.70
23568;DHT22;11962;50.838;4.430;2023-07-16T14:38:40;28.50;63.30
23568;DHT22;11962;50.838;4.430;2023-07-16T14:41:06;28.50;62.80
23568;DHT22;11962;50.838;4.430;2023-07-16T14:43:33;28.60;63.00
23568;DHT22;11962;50.838;4.430;2023-07-16T14:45:59;28.70;63.30
23568;DHT22;11962;50.838;4.430;2023-07-16T14:48:25;28.80;62.40
23568;DHT22;11962;50.838;4.430;2023-07-16T14:50:53;28.80;61.60
23568;DHT22;11962;50.838;4.430;2023-07-16T14:53:18;28.90;61.60
23568;DHT22;11962;50.838;4.430;2023-07-16T14:55:49;28.80;60.30
23568;DHT22;11962;50.838;4.430;2023-07-16T14:58:21;28.80;59.50
23568;DHT22;11962;50.838;4.430;2023-07-16T15:00:47;28.90;59.80
23568;DHT22;11962;50.838;4.430;2023-07-16T15:03:13;28.80;58.80
23568;DHT22;11962;50.838;4.430;2023-07-16T15:05:39;28.70;58.20
23568;DHT22;11962;50.838;4.430;2023-07-16T15:08:05;28.60;58.10
23568;DHT22;11962;50.838;4.430;2023-07-16T15:10:32;28.60;58.00
23568;DHT22;11962;50.838;4.430;2023-07-16T15:12:58;28.40;57.90
23568;DHT22;11962;50.838;4.430;2023-07-16T15:15:24;28.40;58.10
23568;DHT22;11962;50.838;4.430;2023-07-16T15:17:49;28.40;58.00
23568;DHT22;11962;50.838;4.430;2023-07-16T15:20:15;28.30;58.30
23568;DHT22;11962;50.838;4.430;2023-07-16T15:22:41;28.00;59.10
23568;DHT22;11962;50.838;4.430;2023-07-16T15:25:07;27.60;58.30
23568;DHT22;11962;50.838;4.430;2023-07-16T15:27:33;27.30;59.10
23568;DHT22;11962;50.838;4.430;2023-07-16T15:29:59;27.00;59.50
23568;DHT22;11962;50.838;4.430;2023-07-16T15:32:25;26.90;60.20
23568;DHT22;11962;50.838;4.430;2023-07-16T15:34:56;26.90;60.60
23568;DHT22;11962;50.838;4.430;2023-07-16T15:37:22;26.90;60.30
23568;DHT22;11962;50.838;4.430;2023-07-16T15:39:47;26.90;60.40
23568;DHT22;11962;50.838;4.430;2023-07-16T15:42:13;27.00;60.80
23568;DHT22;11962;50.838;4.430;2023-07-16T15:44:39;27.20;61.50
23568;DHT22;11962;50.838;4.430;2023-07-16T15:47:06;27.50;61.10